Time;durP1;ratioP1;P1;durP2;ratioP2;P2;SDS_P1;SDS_P2;PMS_P1;PMS_P2;Temp;Humidity;BMP_temperature;BMP_pressure;BME280_temperature;BME280_humidity;BME280_pressure;Samples;Min_cycle;Max_cycle;Signal;HPM_P1;HPM_P2
2022/11/05 00:09:28;;;;;;;53.90;30.00;;;;;;;9.75;60.87;98174.20;103454;1287;109649;-70
2022/11/05 00:09:28;;;;;;;53.00;27.30;;;;;;;9.73;61.08;98191.02;103643;1298;96617;-71
2022/11/05 00:17:36;;;;;;;47.10;26.60;;;;;;;9.69;61.05;98187.20;103656;1288;107563;-71
2022/11/05 00:20:06;;;;;;;47.80;24.30;;;;;;;9.69;61.13;98186.01;103668;1291;96600;-70
2022/11/05 00:25:21;;;;;;;46.40;25.60;;;;;;;9.70;61.21;98192.30;103564;1288;109871;-71
2022/11/05 00:27:51;;;;;;;47.20;25.50;;;;;;;9.72;61.23;98195.73;103565;1290;96586;-69
2022/11/05 00:30:25;;;;;;;46.30;25.70;;;;;;;9.72;61.26;98198.14;103536;1298;107184;-71
2022/11/05 00:32:53;;;;;;;43.40;24.10;;;;;;;9.74;61.25;98199.98;103574;1290;95965;-70
2022/11/05 00:35:21;;;;;;;47.10;25.30;;;;;;;9.75;61.29;98198.13;103490;1284;95118;-70
2022/11/05 00:37:52;;;;;;;42.60;24.70;;;;;;;9.76;61.30;98204.04;103526;1291;109564;-71
2022/11/05 00:40:20;;;;;;;42.30;25.40;;;;;;;9.77;61.38;98205.02;103566;1283;96624;-70
2022/11/05 00:45:36;;;;;;;50.30;25.10;;;;;;;9.79;61.37;98209.09;103519;1291;96617;-71
2022/11/05 00:50:51;;;;;;;49.40;27.00;;;;;;;9.79;61.44;98205.90;103564;1288;110461;-71
2022/11/05 00:53:19;;;;;;;51.60;26.50;;;;;;;9.80;61.59;98206.90;103596;1296;96400;-71
2022/11/05 00:55:47;;;;;;;49.60;26.40;;;;;;;9.80;61.57;98211.63;103600;1289;107571;-72
2022/11/05 00:58:18;;;;;;;49.00;25.50;;;;;;;9.81;61.58;98211.92;103549;1298;94889;-71
2022/11/05 01:00:52;;;;;;;46.20;25.30;;;;;;;9.81;61.57;98213.00;103554;1293;96533;-71
2022/11/05 01:03:23;;;;;;;46.60;25.50;;;;;;;9.81;61.65;98213.17;103634;1302;109881;-70
2022/11/05 01:05:55;;;;;;;51.90;27.70;;;;;;;9.82;61.68;98214.67;103641;1290;96593;-71
2022/11/05 01:08:26;;;;;;;46.00;26.00;;;;;;;9.82;61.76;98218.17;103641;1295;107552;-70
2022/11/05 01:10:57;;;;;;;46.30;26.10;;;;;;;9.82;61.75;98219.06;103479;1294;96564;-71
2022/11/05 01:13:28;;;;;;;47.50;26.20;;;;;;;9.82;61.76;98219.26;103608;1290;96545;-71
2022/11/05 01:15:56;;;;;;;51.30;27.20;;;;;;;9.82;61.78;98218.23;103535;1290;109618;-69
2022/11/05 01:18:24;;;;;;;51.40;27.60;;;;;;;9.80;61.80;98212.31;103671;1298;96614;-71
2022/11/05 01:20:52;;;;;;;51.60;27.60;;;;;;;9.80;61.91;98217.33;103586;1298;107392;-70
2022/11/05 01:23:20;;;;;;;46.80;26.40;;;;;;;9.78;61.88;98213.73;103579;1291;96524;-69
2022/11/05 01:25:49;;;;;;;52.20;28.60;;;;;;;9.78;61.98;98211.08;103583;1287;96506;-72
2022/11/05 01:28:16;;;;;;;48.80;26.10;;;;;;;9.77;61.96;98206.28;103631;1290;109901;-71
2022/11/05 01:30:44;;;;;;;48.30;27.20;;;;;;;9.72;61.89;98208.05;103591;1290;96520;-72
2022/11/05 01:33:12;;;;;;;51.80;26.20;;;;;;;9.70;61.98;98207.54;103580;1290;107177;-72
2022/11/05 01:35:41;;;;;;;49.10;27.50;;;;;;;9.68;61.98;98209.64;103594;1292;96546;-71
2022/11/05 01:38:08;;;;;;;54.90;26.80;;;;;;;9.66;62.04;98203.96;103591;1298;96467;-71
2022/11/05 01:40:41;;;;;;;51.40;26.60;;;;;;;9.64;62.06;98207.32;103585;1290;109362;-70
2022/11/05 01:43:19;;;;;;;52.00;27.40;;;;;;;9.61;61.99;98207.40;103499;1290;94230;-71
2022/11/05 01:45:52;;;;;;;49.80;27.10;;;;;;;9.56;62.06;98204.83;103537;1298;107532;-71
2022/11/05 01:48:24;;;;;;;48.40;27.60;;;;;;;9.53;62.20;98206.09;103566;1298;94872;-71
2022/11/05 01:51:03;;;;;;;49.20;27.60;;;;;;;9.51;62.30;98211.55;103661;1288;94988;-70
2022/11/05 01:53:56;;;;;;;46.40;26.70;;;;;;;9.51;62.37;98207.83;103552;1290;109976;-70
2022/11/05 01:56:32;;;;;;;48.20;26.70;;;;;;;9.49;62.45;98202.84;103565;1290;94553;-71
2022/11/05 01:59:05;;;;;;;50.10;26.60;;;;;;;9.49;62.49;98209.57;103549;1296;108326;-71
2022/11/05 02:01:34;;;;;;;45.50;25.50;;;;;;;9.47;62.37;98214.14;103608;1290;94327;-71
2022/11/05 02:04:06;;;;;;;46.80;26.70;;;;;;;9.44;62.42;98215.27;103619;1291;96607;-72
2022/11/05 02:06:38;;;;;;;46.50;25.80;;;;;;;9.43;62.50;98215.05;103574;1291;109708;-70
2022/11/05 02:09:11;;;;;;;44.50;25.70;;;;;;;9.42;62.48;98214.93;103606;1296;94193;-72
2022/11/05 02:11:39;;;;;;;54.10;26.90;;;;;;;9.39;62.51;98214.65;103570;1294;107053;-71
2022/11/05 02:14:07;;;;;;;45.10;25.90;;;;;;;9.37;62.55;98217.08;103605;1295;96502;-71
2022/11/05 02:16:46;;;;;;;43.60;25.50;;;;;;;9.37;62.67;98218.36;103497;1290;96539;-70
2022/11/05 02:19:52;;;;;;;50.40;26.30;;;;;;;9.35;62.81;98214.23;103571;1296;109766;-70
2022/11/05 02:22:38;;;;;;;44.40;25.90;;;;;;;9.35;62.89;98210.39;103620;1296;94918;-70
2022/11/05 02:25:31;;;;;;;45.10;25.90;;;;;;;9.34;62.90;98207.09;103580;1298;107689;-70
2022/11/05 02:28:05;;;;;;;43.80;24.50;;;;;;;9.33;62.95;98209.80;103635;1282;97185;-70
2022/11/05 02:30:48;;;;;;;;;;;;;;;9.31;62.97;98205.36;103669;1290;95079;-70
2022/11/05 02:33:55;;;;;;;45.60;24.90;;;;;;;9.27;63.11;98205.86;103602;1298;109810;-71
2022/11/05 02:36:46;;;;;;;47.40;27.10;;;;;;;9.27;63.16;98207.46;103565;1290;97176;-70
2022/11/05 02:39:39;;;;;;;50.00;27.90;;;;;;;9.27;63.21;98208.93;103554;1291;107521;-70
2022/11/05 02:42:34;;;;;;;46.90;25.90;;;;;;;9.25;63.18;98218.06;103544;1279;95218;-71
2022/11/05 02:45:06;;;;;;;45.50;25.80;;;;;;;9.23;63.22;98219.44;103597;1281;94233;-70
2022/11/05 02:47:50;;;;;;;42.90;26.10;;;;;;;9.23;63.35;98225.09;103572;1290;109810;-70
2022/11/05 02:50:22;;;;;;;54.20;27.60;;;;;;;9.21;63.24;98226.11;103618;1295;98134;-70
2022/11/05 02:53:01;;;;;;;45.40;26.10;;;;;;;9.20;63.32;98230.18;103616;1298;107562;-72
2022/11/05 02:55:39;;;;;;;46.70;25.40;;;;;;;9.21;63.43;98239.09;103612;1304;96395;-70
2022/11/05 02:58:07;;;;;;;45.80;26.10;;;;;;;9.21;63.45;98238.85;103592;1281;96486;-71
2022/11/05 03:00:51;;;;;;;46.50;24.80;;;;;;;9.22;63.50;98243.25;103561;1290;109455;-71
2022/11/05 03:03:24;;;;;;;44.40;25.70;;;;;;;9.23;63.51;98243.20;103540;1289;96628;-72
2022/11/05 03:05:55;;;;;;;49.30;26.50;;;;;;;9.23;63.59;98244.27;103583;1288;107922;-71
2022/11/05 03:09:10;;;;;;;44.50;26.40;;;;;;;9.23;63.66;98249.21;103544;1292;96517;-71
2022/11/05 03:12:07;;;;;;;44.90;25.20;;;;;;;9.22;63.82;98256.46;103300;1297;96515;-71
2022/11/05 03:14:47;;;;;;;45.00;26.00;;;;;;;9.22;63.74;98257.39;103503;1298;109392;-70
2022/11/05 03:17:24;;;;;;;44.80;26.70;;;;;;;9.22;63.73;98257.36;103642;1297;94241;-72
2022/11/05 03:20:19;;;;;;;43.40;25.20;;;;;;;9.23;63.83;98253.45;103613;1290;107453;-71
2022/11/05 03:22:58;;;;;;;46.20;26.90;;;;;;;9.23;63.90;98248.88;103489;1291;97066;-70
2022/11/05 03:25:29;;;;;;;48.70;27.90;;;;;;;9.22;63.85;98253.84;103699;1294;94208;-70
2022/11/05 03:28:04;;;;;;;46.60;26.70;;;;;;;9.21;63.90;98252.69;103656;1290;109713;-70
2022/11/05 03:30:35;;;;;;;46.60;26.20;;;;;;;9.21;64.00;98249.87;103613;1290;96519;-71
2022/11/05 03:33:10;;;;;;;47.60;26.80;;;;;;;9.21;64.05;98245.83;103619;1297;107945;-70
2022/11/05 03:35:49;;;;;;;49.00;27.70;;;;;;;9.19;64.06;98250.20;103647;1298;96532;-70
2022/11/05 03:38:25;;;;;;;50.70;28.90;;;;;;;9.17;64.08;98250.55;103632;1285;96476;-70
2022/11/05 03:40:58;;;;;;;47.10;26.20;;;;;;;9.17;64.09;98250.35;103658;1292;109759;-70
2022/11/05 03:43:30;;;;;;;43.20;24.60;;;;;;;9.16;64.09;98251.70;103506;1290;96526;-70
2022/11/05 03:46:03;;;;;;;47.10;26.20;;;;;;;9.15;64.11;98251.25;103593;1291;107408;-70
2022/11/05 03:48:37;;;;;;;48.50;26.00;;;;;;;9.13;64.18;98252.98;103687;1292;96405;-73
2022/11/05 03:51:30;;;;;;;43.80;27.30;;;;;;;9.11;64.26;98254.23;103622;1295;96624;-71
2022/11/05 03:54:01;;;;;;;47.40;26.10;;;;;;;9.10;64.30;98255.67;103607;1290;109790;-71
2022/11/05 03:57:01;;;;;;;50.70;26.50;;;;;;;9.09;64.37;98258.92;103639;1298;96617;-71
2022/11/05 03:59:38;;;;;;;44.50;26.00;;;;;;;9.09;64.42;98262.31;103584;1291;107558;-70
2022/11/05 04:02:08;;;;;;;47.40;27.50;;;;;;;9.08;64.46;98264.30;103630;1298;96538;-70
2022/11/05 04:04:38;;;;;;;48.10;27.60;;;;;;;9.08;64.43;98264.35;103686;1298;97174;-69
2022/11/05 04:15:29;;;;;;;48.30;25.90;;;;;;;9.08;64.70;98270.70;103600;1298;96629;-70
2022/11/05 04:17:57;;;;;;;45.30;26.50;;;;;;;9.09;64.71;98274.53;103694;1298;96500;-71
2022/11/05 04:25:58;;;;;;;48.30;25.80;;;;;;;9.09;64.85;98279.45;103606;1299;107421;-70
2022/11/05 04:30:17;;;;;;;47.40;27.90;;;;;;;9.10;64.80;98284.34;103672;1288;95653;-70
2022/11/05 04:31:13;;;;;;;43.10;27.40;;;;;;;9.11;64.96;98282.20;103575;1293;96668;-70
2022/11/05 04:33:41;;;;;;;43.20;25.20;;;;;;;9.11;64.89;98284.27;103571;1294;109843;-70
2022/11/05 04:36:09;;;;;;;45.70;26.80;;;;;;;9.12;64.96;98285.30;103677;1294;96501;-70
2022/11/05 04:38:37;;;;;;;43.30;26.90;;;;;;;9.10;65.00;98287.16;103668;1295;107960;-70
2022/11/05 04:41:14;;;;;;;49.40;27.90;;;;;;;9.11;65.04;98293.85;103629;1295;94251;-69
2022/11/05 04:43:43;;;;;;;43.10;26.50;;;;;;;9.10;65.04;98297.10;103589;1288;131098;-70
2022/11/05 04:46:11;;;;;;;50.30;27.80;;;;;;;9.08;65.12;98294.73;103701;1297;109973;-69
2022/11/05 04:48:38;;;;;;;44.10;27.00;;;;;;;9.09;65.25;98294.67;103583;1288;95353;-69
2022/11/05 04:51:06;;;;;;;45.40;27.50;;;;;;;9.10;65.25;98298.52;103561;1294;108106;-69
2022/11/05 04:53:34;;;;;;;44.20;26.40;;;;;;;9.10;65.26;98296.54;103579;1298;96556;-69
2022/11/05 04:56:19;;;;;;;47.00;26.80;;;;;;;9.10;65.34;98298.14;103563;1289;97029;-69
2022/11/05 04:58:47;;;;;;;46.00;28.10;;;;;;;9.12;65.36;98299.61;103542;1296;110459;-71
2022/11/05 05:01:18;;;;;;;44.30;28.50;;;;;;;9.13;65.39;98302.15;103648;1292;94301;-71
2022/11/05 05:03:48;;;;;;;46.40;27.30;;;;;;;9.12;65.26;98303.30;103626;1297;106627;-70
2022/11/05 05:06:17;;;;;;;47.40;27.60;;;;;;;9.10;65.43;98304.13;103608;1298;96572;-70
2022/11/05 05:08:47;;;;;;;47.60;28.50;;;;;;;9.10;65.40;98306.83;103639;1298;96502;-69
2022/11/05 05:11:18;;;;;;;48.00;26.80;;;;;;;9.10;65.54;98310.90;103644;1290;109891;-69
2022/11/05 05:13:47;;;;;;;49.40;29.00;;;;;;;9.10;65.48;98312.46;103651;1297;96610;-70
2022/11/05 05:16:21;;;;;;;50.00;29.40;;;;;;;9.08;65.38;98314.95;103542;1294;107436;-70
2022/11/05 05:18:51;;;;;;;50.30;30.30;;;;;;;9.06;65.50;98314.06;103630;1292;96609;-69
2022/11/05 05:21:40;;;;;;;47.30;28.20;;;;;;;9.05;65.62;98320.99;103699;1295;94396;-70
2022/11/05 05:24:14;;;;;;;50.10;30.50;;;;;;;9.04;65.66;98323.19;103522;1290;110388;-71
2022/11/05 05:26:44;;;;;;;;;;;;;;;9.03;65.55;98324.83;103618;1298;96320;-71
2022/11/05 05:29:13;;;;;;;52.20;28.00;;;;;;;9.00;65.84;98325.98;103649;1298;107357;-70
2022/11/05 05:31:41;;;;;;;47.00;29.50;;;;;;;8.99;65.85;98331.19;103653;1289;96640;-71
2022/11/05 05:34:12;;;;;;;47.10;27.30;;;;;;;8.99;65.51;98340.24;103655;1299;95273;-71
2022/11/05 05:36:40;;;;;;;48.50;28.10;;;;;;;8.93;65.57;98347.72;103731;1299;109824;-72
2022/11/05 05:39:09;;;;;;;47.10;28.00;;;;;;;8.93;65.79;98352.71;103756;1297;94932;-71
2022/11/05 05:41:37;;;;;;;51.20;30.90;;;;;;;8.93;65.80;98354.63;103588;1299;107428;-71
2022/11/05 05:44:05;;;;;;;48.60;28.40;;;;;;;8.94;65.82;98350.89;103694;1299;96368;-70
2022/11/05 05:46:33;;;;;;;45.20;28.10;;;;;;;8.93;65.94;98347.16;103712;1296;94676;-70
2022/11/05 05:49:01;;;;;;;52.30;29.10;;;;;;;8.94;65.85;98342.38;103702;1291;109784;-71
2022/11/05 05:51:33;;;;;;;47.30;29.10;;;;;;;8.93;65.96;98345.41;103705;1289;96587;-70
2022/11/05 05:54:01;;;;;;;52.10;30.00;;;;;;;8.93;65.91;98350.92;103661;1296;107320;-71
2022/11/05 05:56:29;;;;;;;47.10;28.50;;;;;;;8.92;66.03;98358.73;103541;1291;96532;-72
2022/11/05 05:58:57;;;;;;;48.20;28.20;;;;;;;8.91;65.88;98361.20;103574;1291;94231;-72
2022/11/05 06:01:25;;;;;;;52.00;31.10;;;;;;;8.89;66.13;98366.45;103549;1295;109688;-73
2022/11/05 06:03:53;;;;;;;46.40;26.80;;;;;;;8.90;66.24;98371.46;103672;1299;96439;-70
2022/11/05 06:06:22;;;;;;;50.20;28.70;;;;;;;8.92;66.31;98373.11;103603;1296;107628;-72
2022/11/05 06:08:50;;;;;;;46.40;27.10;;;;;;;8.95;66.40;98370.61;103668;1291;96623;-71
2022/11/05 06:11:18;;;;;;;50.10;28.80;;;;;;;8.97;66.33;98371.85;103653;1297;96615;-70
2022/11/05 06:13:45;;;;;;;47.50;28.70;;;;;;;8.99;66.45;98371.17;103663;1299;109400;-71
2022/11/05 06:16:13;;;;;;;48.50;29.60;;;;;;;9.01;66.46;98374.88;103636;1292;96684;-72
2022/11/05 06:18:41;;;;;;;53.70;30.50;;;;;;;9.03;66.48;98384.86;103651;1298;107474;-70
2022/11/05 06:21:12;;;;;;;48.70;29.00;;;;;;;9.02;66.43;98390.77;103580;1288;94215;-70
2022/11/05 06:23:42;;;;;;;48.20;30.00;;;;;;;9.02;66.53;98393.92;103748;1298;95882;-73
2022/11/05 06:26:13;;;;;;;49.60;29.70;;;;;;;9.03;66.56;98401.60;103679;1297;109935;-75
2022/11/05 06:28:42;;;;;;;51.50;30.00;;;;;;;9.05;66.65;98399.20;103639;1291;94225;-70
2022/11/05 06:31:12;;;;;;;51.20;31.40;;;;;;;9.05;66.67;98396.15;103594;1288;107766;-70
2022/11/05 06:33:41;;;;;;;60.70;36.30;;;;;;;9.06;66.59;98391.49;103586;1298;96615;-70
2022/11/05 06:36:14;;;;;;;59.30;34.80;;;;;;;9.04;66.55;98388.81;103475;1290;96561;-69
2022/11/05 06:38:42;;;;;;;57.70;35.50;;;;;;;9.02;66.60;98394.65;103518;1298;110465;-72
2022/11/05 06:41:09;;;;;;;59.20;33.40;;;;;;;9.01;66.72;98400.89;103486;1288;96539;-70
2022/11/05 06:43:38;;;;;;;53.70;32.00;;;;;;;9.00;66.67;98394.73;103564;1291;106496;-69
2022/11/05 06:46:06;;;;;;;52.00;30.20;;;;;;;8.99;66.69;98389.20;103591;1288;94300;-68
2022/11/05 06:48:35;;;;;;;55.60;31.80;;;;;;;8.98;66.72;98395.08;103579;1297;94945;-69
2022/11/05 06:51:05;;;;;;;49.60;31.50;;;;;;;8.95;66.40;98405.96;103568;1298;110349;-71
2022/11/05 06:53:34;;;;;;;52.80;32.40;;;;;;;8.85;66.52;98414.10;103524;1288;96498;-69
2022/11/05 06:56:06;;;;;;;52.50;32.80;;;;;;;8.83;66.79;98412.55;103299;1298;108224;-72
2022/11/05 06:58:34;;;;;;;53.60;32.50;;;;;;;8.82;66.95;98408.83;103478;1296;95005;-69
2022/11/05 07:01:08;;;;;;;52.20;33.10;;;;;;;8.83;67.02;98408.77;103543;1298;96615;-70
2022/11/05 07:03:37;;;;;;;60.20;33.80;;;;;;;8.85;67.07;98408.47;103489;1294;109857;-69
2022/11/05 07:06:06;;;;;;;55.80;31.40;;;;;;;8.85;66.99;98412.52;103536;1298;96523;-70
2022/11/05 07:08:37;;;;;;;53.70;32.10;;;;;;;8.83;67.05;98416.06;103401;1298;106773;-69
2022/11/05 07:11:06;;;;;;;52.30;31.40;;;;;;;8.83;67.14;98420.50;103471;1297;94982;-70
2022/11/05 07:13:34;;;;;;;53.50;32.30;;;;;;;8.84;67.22;98420.95;103558;1295;96581;-70
2022/11/05 07:16:02;;;;;;;56.20;32.60;;;;;;;8.84;67.14;98425.33;103392;1298;109405;-70
2022/11/05 07:18:30;;;;;;;58.50;33.50;;;;;;;8.85;67.27;98425.98;103594;1289;97703;-70
2022/11/05 07:20:59;;;;;;;53.10;33.30;;;;;;;8.87;67.29;98427.05;103615;1298;107647;-69
2022/11/05 07:23:27;;;;;;;57.20;35.00;;;;;;;8.89;67.31;98432.00;103611;1290;94228;-69
2022/11/05 07:25:56;;;;;;;57.70;35.20;;;;;;;8.92;67.30;98440.07;103621;1298;96596;-69
2022/11/05 07:28:24;;;;;;;52.60;32.00;;;;;;;8.95;67.37;98439.19;103641;1293;110272;-70
2022/11/05 07:30:52;;;;;;;53.90;33.30;;;;;;;8.97;67.32;98443.46;103664;1284;96510;-71
2022/11/05 07:33:21;;;;;;;53.10;32.60;;;;;;;8.99;67.27;98452.17;103589;1297;107567;-71
2022/11/05 07:35:49;;;;;;;57.30;32.20;;;;;;;8.98;67.34;98453.29;103580;1287;95630;-69
2022/11/05 07:38:17;;;;;;;58.00;33.80;;;;;;;9.00;67.54;98462.33;103599;1294;94218;-70
2022/11/05 07:40:46;;;;;;;53.50;34.20;;;;;;;9.03;67.45;98465.96;103464;1292;109802;-69
2022/11/05 07:43:13;;;;;;;56.60;32.50;;;;;;;9.06;67.53;98469.48;103579;1297;96518;-71
2022/11/05 07:45:45;;;;;;;56.60;33.90;;;;;;;9.08;67.55;98464.92;103568;1291;107477;-70
2022/11/05 07:48:13;;;;;;;58.80;34.80;;;;;;;9.12;67.60;98464.25;103592;1295;96609;-71
2022/11/05 07:50:41;;;;;;;52.40;33.50;;;;;;;9.16;67.70;98472.61;103601;1295;94245;-69
2022/11/05 07:53:12;;;;;;;58.10;34.50;;;;;;;9.22;67.76;98474.99;103545;1297;108568;-70
2022/11/05 07:55:40;;;;;;;59.80;37.60;;;;;;;9.26;67.74;98476.68;103594;1290;94232;-69
2022/11/05 07:58:10;;;;;;;59.20;36.00;;;;;;;9.31;67.84;98476.64;103456;1291;107305;-69
2022/11/05 08:00:39;;;;;;;59.50;34.70;;;;;;;9.37;67.81;98473.65;103564;1286;94663;-66
2022/11/05 08:03:17;;;;;;;60.60;36.90;;;;;;;9.45;67.85;98467.80;103588;1298;96620;-68
2022/11/05 08:05:47;;;;;;;58.80;37.00;;;;;;;9.53;68.00;98469.23;103562;1296;110517;-68
2022/11/05 08:08:18;;;;;;;65.00;38.20;;;;;;;9.59;67.91;98465.10;103545;1297;96817;-69
2022/11/05 08:10:46;;;;;;;57.90;36.20;;;;;;;9.63;67.89;98469.52;103543;1294;107992;-68
2022/11/05 08:13:16;;;;;;;66.50;38.10;;;;;;;9.69;67.98;98471.43;103589;1290;96595;-68
2022/11/05 08:15:44;;;;;;;68.60;39.50;;;;;;;9.74;68.01;98470.63;103645;1297;96546;-68
2022/11/05 08:18:16;;;;;;;68.00;37.00;;;;;;;9.80;68.04;98472.83;103580;1294;110933;-68
2022/11/05 08:20:46;;;;;;;66.00;38.60;;;;;;;9.85;68.17;98475.11;103608;1291;96731;-70
2022/11/05 08:23:14;;;;;;;60.10;37.20;;;;;;;9.88;68.13;98473.59;103599;1290;107523;-70
2022/11/05 08:25:43;;;;;;;61.30;37.90;;;;;;;9.91;68.20;98471.95;103564;1291;96628;-69
2022/11/05 08:28:12;;;;;;;59.10;38.30;;;;;;;9.95;68.22;98473.09;103572;1291;96543;-70
2022/11/05 08:30:41;;;;;;;61.90;38.10;;;;;;;9.96;68.11;98472.85;103590;1298;109563;-69
2022/11/05 08:33:11;;;;;;;67.00;40.50;;;;;;;9.99;68.13;98477.02;103566;1294;96591;-69
2022/11/05 08:35:41;;;;;;;61.30;37.70;;;;;;;10.00;68.13;98477.33;103636;1297;106689;-69
2022/11/05 08:38:12;;;;;;;60.70;37.10;;;;;;;9.97;68.18;98478.73;103624;1287;96624;-67
2022/11/05 08:40:42;;;;;;;58.10;36.00;;;;;;;9.96;68.29;98481.09;103618;1299;96800;-68
2022/11/05 08:43:12;;;;;;;60.30;36.20;;;;;;;9.98;68.34;98488.27;103563;1290;109999;-69
2022/11/05 08:45:41;;;;;;;57.80;35.70;;;;;;;10.00;68.42;98492.17;103596;1290;96599;-70
2022/11/05 08:48:15;;;;;;;55.70;34.30;;;;;;;10.02;68.43;98491.86;103561;1289;108075;-68
2022/11/05 08:50:44;;;;;;;;;;;;;;;10.03;68.43;98491.57;103564;1292;94219;-68
2022/11/05 08:53:14;;;;;;;56.50;34.80;;;;;;;10.01;68.58;98490.45;103477;1285;96670;-68
2022/11/05 08:55:43;;;;;;;52.80;34.00;;;;;;;10.03;68.60;98493.18;103617;1287;109666;-68
2022/11/05 08:58:14;;;;;;;58.10;35.60;;;;;;;10.04;68.62;98492.95;103576;1297;97215;-69
2022/11/05 09:00:48;;;;;;;56.90;35.30;;;;;;;10.04;68.62;98498.73;103574;1287;108178;-70
2022/11/05 09:03:17;;;;;;;65.70;39.90;;;;;;;10.05;68.65;98506.63;103577;1298;96610;-69
2022/11/05 09:05:45;;;;;;;61.90;38.30;;;;;;;10.05;68.59;98503.63;103623;1298;96508;-66
2022/11/05 09:08:16;;;;;;;59.10;36.10;;;;;;;10.06;68.69;98502.02;103620;1289;110154;-69
2022/11/05 09:10:46;;;;;;;61.90;37.90;;;;;;;10.02;68.65;98508.09;103672;1291;94207;-70
2022/11/05 09:13:14;;;;;;;61.70;38.20;;;;;;;10.03;68.75;98512.85;103623;1295;108166;-68
2022/11/05 09:15:50;;;;;;;68.60;39.90;;;;;;;10.04;68.74;98514.89;103654;1297;96605;-68
2022/11/05 09:18:19;;;;;;;58.70;36.70;;;;;;;10.00;68.76;98513.77;103602;1291;94443;-69
2022/11/05 09:20:47;;;;;;;62.20;37.30;;;;;;;9.96;68.72;98512.31;103563;1297;110043;-69
2022/11/05 09:23:17;;;;;;;59.70;37.60;;;;;;;9.95;68.64;98519.65;103438;1295;96663;-69
2022/11/05 09:25:45;;;;;;;56.80;36.00;;;;;;;9.92;68.70;98525.50;103575;1298;107466;-71
2022/11/05 09:28:20;;;;;;;53.90;35.50;;;;;;;9.88;68.79;98530.85;103554;1296;96480;-69
2022/11/05 09:30:51;;;;;;;55.70;37.90;;;;;;;9.86;68.89;98531.38;103570;1298;96614;-68
2022/11/05 09:33:23;;;;;;;58.00;37.50;;;;;;;9.86;68.84;98533.85;103530;1296;109595;-69
2022/11/05 09:35:52;;;;;;;56.50;36.90;;;;;;;9.84;68.90;98532.89;103565;1289;94238;-69
2022/11/05 09:38:20;;;;;;;56.00;35.00;;;;;;;9.82;68.97;98535.48;103465;1297;107592;-71
2022/11/05 09:41:06;;;;;;;55.20;32.90;;;;;;;9.82;68.98;98537.13;103338;1294;96504;-69
2022/11/05 09:43:41;;;;;;;55.40;34.20;;;;;;;9.82;69.12;98542.04;103552;1291;94236;-68
2022/11/05 09:46:12;;;;;;;55.30;34.50;;;;;;;9.83;69.19;98543.77;103442;1296;109588;-68
2022/11/05 09:48:44;;;;;;;53.50;34.30;;;;;;;9.86;69.26;98537.91;103519;1288;96547;-68
2022/11/05 09:51:14;;;;;;;55.10;35.10;;;;;;;9.88;69.30;98540.22;103460;1292;107497;-70
2022/11/05 09:53:52;;;;;;;40.90;26.10;;;;;;;9.90;69.23;98538.45;103528;1291;96479;-70
2022/11/05 09:56:25;;;;;;;41.30;24.30;;;;;;;9.88;69.03;98538.77;103419;1291;95261;-69
2022/11/05 09:59:02;;;;;;;36.90;21.80;;;;;;;9.95;69.18;98544.43;103312;1294;108552;-70
2022/11/05 10:01:34;;;;;;;33.00;18.00;;;;;;;10.04;69.44;98550.29;103448;1298;94322;-73
2022/11/05 10:04:14;;;;;;;35.80;19.90;;;;;;;10.09;69.26;98552.79;103483;1296;107443;-72
2022/11/05 10:06:59;;;;;;;32.50;18.60;;;;;;;10.12;69.31;98562.42;103546;1298;95628;-68
2022/11/05 10:09:47;;;;;;;32.80;18.30;;;;;;;10.11;69.47;98565.38;103599;1297;97167;-69
2022/11/05 10:12:35;;;;;;;35.50;20.20;;;;;;;10.06;69.48;98563.79;103552;1297;110005;-69
2022/11/05 10:15:27;;;;;;;30.10;17.50;;;;;;;10.03;69.45;98567.61;103568;1291;96603;-68
2022/11/05 10:18:21;;;;;;;29.50;16.10;;;;;;;9.96;69.40;98569.86;103442;1291;106567;-68
2022/11/05 10:20:49;;;;;;;29.50;16.70;;;;;;;9.87;69.20;98570.38;103509;1299;96498;-69
2022/11/05 10:23:19;;;;;;;29.80;17.10;;;;;;;9.80;69.40;98570.02;103544;1297;96506;-69
2022/11/05 10:25:53;;;;;;;32.60;18.40;;;;;;;9.77;69.45;98571.90;103460;1297;109756;-68
2022/11/05 10:28:25;;;;;;;33.10;18.80;;;;;;;9.72;69.57;98573.48;103443;1292;96545;-68
2022/11/05 10:31:13;;;;;;;29.50;17.10;;;;;;;9.70;69.58;98578.98;103525;1294;107496;-69
2022/11/05 10:33:46;;;;;;;31.60;17.30;;;;;;;9.65;69.83;98580.90;103541;1291;96629;-69
2022/11/05 10:36:33;;;;;;;30.10;18.30;;;;;;;9.61;69.71;98583.21;103543;1297;94335;-70
2022/11/05 10:39:11;;;;;;;31.90;17.30;;;;;;;9.57;69.78;98583.14;103547;1304;109930;-71
2022/11/05 10:42:01;;;;;;;28.80;17.70;;;;;;;9.55;69.64;98587.69;103534;1298;96615;-71
2022/11/05 10:44:52;;;;;;;30.80;18.10;;;;;;;9.53;69.89;98590.36;103573;1299;107612;-69
2022/11/05 10:47:29;;;;;;;29.40;17.50;;;;;;;9.50;69.75;98593.05;103604;1294;96615;-70
2022/11/05 10:50:09;;;;;;;30.10;17.40;;;;;;;9.47;69.68;98596.65;103618;1294;97281;-69
2022/11/05 10:52:53;;;;;;;29.40;17.00;;;;;;;9.43;70.00;98596.56;103581;1295;109765;-71
2022/11/05 10:55:36;;;;;;;30.30;17.70;;;;;;;9.42;69.95;98597.73;103620;1295;96516;-70
2022/11/05 10:58:16;;;;;;;28.60;18.40;;;;;;;9.40;70.16;98600.13;103602;1297;107593;-70
2022/11/05 11:01:10;;;;;;;29.80;17.70;;;;;;;9.42;70.22;98602.45;103643;1296;96521;-70
2022/11/05 11:03:46;;;;;;;30.90;17.70;;;;;;;9.44;70.13;98599.72;103544;1297;94246;-70
2022/11/05 11:06:31;;;;;;;31.80;17.70;;;;;;;9.43;70.07;98599.97;103620;1291;109441;-70
2022/11/05 11:09:02;;;;;;;28.80;16.80;;;;;;;9.43;70.06;98604.86;103613;1294;94472;-73
2022/11/05 11:11:38;;;;;;;29.90;17.40;;;;;;;9.42;69.97;98608.02;103466;1295;105971;-71
2022/11/05 11:14:21;;;;;;;29.60;17.90;;;;;;;9.41;70.27;98611.56;103572;1298;96557;-70
2022/11/05 11:16:52;;;;;;;28.30;16.50;;;;;;;9.42;70.04;98611.84;103583;1299;96497;-70
2022/11/05 11:19:20;;;;;;;29.30;16.50;;;;;;;9.41;70.10;98607.89;103620;1291;109715;-71
2022/11/05 11:22:04;;;;;;;28.30;15.80;;;;;;;9.43;70.30;98608.44;103578;1298;96662;-70
2022/11/05 11:24:39;;;;;;;27.90;17.60;;;;;;;9.44;70.36;98615.63;103568;1297;107447;-71
2022/11/05 11:27:34;;;;;;;27.60;15.70;;;;;;;9.44;70.42;98618.29;103591;1291;94375;-71
2022/11/05 11:30:04;;;;;;;26.10;15.00;;;;;;;9.43;70.40;98618.00;103538;1294;94239;-71
2022/11/05 11:32:38;;;;;;;27.50;16.20;;;;;;;9.42;70.34;98612.23;103544;1297;109940;-72
2022/11/05 11:35:21;;;;;;;28.40;16.10;;;;;;;9.43;70.47;98611.95;103582;1296;94296;-71
2022/11/05 11:37:53;;;;;;;29.00;15.70;;;;;;;9.45;70.52;98615.55;103550;1297;107529;-71
2022/11/05 11:40:32;;;;;;;26.30;14.70;;;;;;;9.45;70.63;98611.27;103530;1295;96531;-70
2022/11/05 11:43:05;;;;;;;25.10;13.60;;;;;;;9.45;70.60;98613.41;103520;1295;96540;-71
2022/11/05 11:45:48;;;;;;;26.20;13.90;;;;;;;9.44;70.74;98615.63;103547;1295;109786;-69
2022/11/05 11:48:21;;;;;;;23.10;12.50;;;;;;;9.45;70.60;98618.73;103547;1295;94247;-70
2022/11/05 11:50:50;;;;;;;23.50;12.60;;;;;;;9.45;70.60;98617.27;103558;1294;108172;-69
2022/11/05 11:53:48;;;;;;;24.20;12.90;;;;;;;9.46;70.57;98615.64;103534;1295;94257;-70
2022/11/05 11:56:20;;;;;;;21.50;11.50;;;;;;;9.46;70.79;98615.63;103457;1297;94567;-71
2022/11/05 11:58:50;;;;;;;22.50;11.50;;;;;;;9.48;70.95;98614.77;103565;1291;109816;-71
2022/11/05 12:01:45;;;;;;;22.80;12.30;;;;;;;9.51;70.74;98613.15;103551;1299;96627;-71
2022/11/05 12:04:44;;;;;;;24.10;12.30;;;;;;;9.49;70.68;98610.64;103539;1296;107638;-71
2022/11/05 12:07:20;;;;;;;21.80;11.80;;;;;;;9.48;70.93;98610.16;103489;1299;97317;-71
2022/11/05 12:10:00;;;;;;;23.70;12.30;;;;;;;9.50;70.86;98608.98;103564;1291;96472;-71
2022/11/05 12:12:42;;;;;;;26.70;13.40;;;;;;;9.50;70.79;98616.20;103499;1297;109140;-71
2022/11/05 12:15:09;;;;;;;22.60;12.60;;;;;;;9.48;71.01;98617.92;103532;1288;96526;-71
2022/11/05 12:18:02;;;;;;;22.60;12.10;;;;;;;9.51;70.96;98615.26;103472;1290;105849;-71